Home   Weather   Germany   Munich   Past weeks
Flag for Germany

Past Weather in Munich, Bavaria, Germany — Yesterday and Last 2 Weeks

Currently: 70 °F. Scattered clouds. (Weather station: Oberpfaffenhofen, Germany). See more current weather

Past Weather in Munich — Graph

°F

Munich Temperature Yesterday

Maximum temperature yesterday: 82 °F (at 5:20 pm)
Minimum temperature yesterday: 59 °F (at 11:20 pm)
Average temperature yesterday: 71 °F

High & Low Weather Summary for the Past Weeks

 TemperatureHumidityPressure
High88 °F (Jun 18, 4:20 pm)100% (Jun 8, 2:20 am)30.30 "Hg (Jun 8, 2:20 am)
Low43 °F (Jun 14, 3:50 am)28% (Jun 16, 3:20 pm)29.68 "Hg (Jun 19, 7:50 pm)
Average67 °F68%30.06 "Hg
* Reported Jun 7 5:20 pm — Jun 22 5:50 pm, Munich. Weather by CustomWeather, © 2021

Note: Actual official high and low records may vary slightly from our data, if they occured in-between our weather recording intervals... More about our weather records

Munich Weather History for the Previous 24 Hours

Scroll right to see more
 ConditionsComfort  
Time TempWeatherWind HumidityBarometerVisibility
5:50 pm
Tue, Jun 22
72 °FPassing clouds.7 mph69%29.92 "HgN/A
5:20 pm72 °FScattered clouds.7 mph69%29.92 "HgN/A
4:50 pm73 °FScattered clouds.6 mph61%29.92 "HgN/A
4:20 pm73 °FScattered clouds.7 mph65%29.92 "HgN/A
3:50 pm70 °FThundershowers. Partly sunny.5 mph78%29.95 "HgN/A
3:20 pm70 °FThunderstorms. Partly sunny.10 mph73%29.92 "HgN/A
2:50 pm72 °FPartly sunny.12 mph65%29.86 "HgN/A
2:20 pm75 °FPartly sunny.12 mph61%29.89 "HgN/A
1:50 pm73 °FScattered clouds.12 mph65%29.92 "HgN/A
1:20 pm73 °FScattered clouds.12 mph65%29.89 "HgN/A
12:50 pm72 °FScattered clouds.12 mph65%29.86 "HgN/A
12:20 pm72 °FPassing clouds.12 mph69%29.86 "HgN/A
11:50 am72 °FPassing clouds.10 mph69%29.89 "HgN/A
11:20 am70 °FPassing clouds.10 mph69%29.86 "HgN/A
10:50 am68 °FPassing clouds.12 mph73%29.86 "HgN/A
10:20 am70 °FPassing clouds.10 mph73%29.89 "HgN/A
9:50 am68 °FPassing clouds.12 mph78%29.89 "HgN/A
9:20 am68 °FPassing clouds.9 mph78%29.89 "HgN/A
8:50 am66 °FPassing clouds.7 mph78%29.89 "HgN/A
8:20 am64 °FPassing clouds.5 mph83%29.89 "HgN/A
7:50 am64 °FPassing clouds.5 mph83%29.89 "HgN/A
7:20 am63 °FSunny.3 mph94%29.89 "Hg10 mi
6:50 am59 °FSunny.1 mph100%29.89 "Hg10 mi
6:20 am59 °FBroken clouds.1 mph94%29.89 "HgN/A
5:50 am59 °FMostly cloudy.No wind94%29.89 "HgN/A
5:20 am59 °FOvercast.3 mph94%29.89 "HgN/A
4:50 am59 °FOvercast.2 mph94%29.89 "HgN/A
4:20 am59 °FOvercast.3 mph94%29.89 "HgN/A
3:50 am57 °FOvercast.2 mph100%29.89 "HgN/A
3:20 am59 °FPassing clouds.5 mph94%29.89 "HgN/A
2:50 am59 °FOvercast.7 mph100%29.89 "HgN/A
2:20 am59 °FOvercast.9 mph100%29.92 "HgN/A
1:50 am59 °FMostly cloudy.8 mph100%29.92 "HgN/A
1:20 am59 °FPassing clouds.8 mph100%29.92 "HgN/A
12:50 am59 °FPassing clouds.5 mph94%29.92 "HgN/A
12:20 am61 °FPartly cloudy.9 mph94%29.89 "HgN/A
11:50 pm
Mon, Jun 21
61 °FMostly cloudy.18 mph88%29.89 "HgN/A
11:20 pm59 °FMostly cloudy.18 mph94%29.89 "Hg2 mi
10:50 pm66 °FMostly cloudy.16 mph78%29.83 "HgN/A
10:20 pm68 °FOvercast.3 mph78%29.77 "HgN/A
9:50 pm68 °FMostly cloudy.10 mph78%29.74 "HgN/A
9:20 pm73 °FOvercast.10 mph57%29.74 "HgN/A
8:50 pm75 °FMore clouds than sun.14 mph50%29.74 "HgN/A
8:20 pm75 °FBroken clouds.12 mph54%29.77 "HgN/A
7:50 pm77 °FThundershowers. Scattered clouds.10 mph51%29.77 "HgN/A
7:20 pm79 °FScattered clouds.10 mph48%29.77 "HgN/A
Weather by CustomWeather, © 2021

See weather overview